Esperce Pauzies

FR-0722 · Upper Garonne, Occitanie, France

METAR history FR-0722 · Esperce Pauzies

Below you see METARs of the last few days. Select a year to browse through older METARs, from the year 2007 onwards.

July 20, 2024

Time Code Weather Temp. Visibility Ceiling Wind METAR/SPECI
21:00
V
28 °C 10 km+ - 270° 270° 11 kt METAR LFBF 201900Z AUTO 27011KT CAVOK 28/19 Q1007
20:30
V
30 °C 10 km+ - 280° 280° 10 kt METAR LFBF 201830Z AUTO 28010KT 250V320 CAVOK 30/19 Q1007
20:00
V
31 °C 10 km+ - 280° 280° 12 kt METAR LFBF 201800Z AUTO 28012KT CAVOK 31/19 Q1007
19:30
V
31 °C 10 km+ - 280° 280° 12 kt METAR LFBF 201730Z AUTO 28012KT CAVOK 31/19 Q1007
19:00
V
32 °C 10 km+ - 270° 270° 13 kt METAR LFBF 201700Z AUTO 27013KT CAVOK 32/20 Q1007
18:30
V
32 °C 10 km+ - 280° 280° 11 kt METAR LFBF 201630Z AUTO 28011KT 230V310 9999 FEW049 32/20 Q1007
18:00
V
33 °C 10 km+ - 260° 260° 8 kt METAR LFBF 201600Z AUTO 26008KT 220V310 CAVOK 33/20 Q1007
17:30
V
33 °C 10 km+ - 290° 290° 8 kt METAR LFBF 201530Z AUTO 29008KT 220V340 CAVOK 33/20 Q1007
17:00
V
33 °C 10 km+ - 280° 280° 7 kt METAR LFBF 201500Z AUTO 28007KT 220V340 CAVOK 33/20 Q1007
16:30
V
33 °C 10 km+ - Var Var 4 kt METAR LFBF 201430Z AUTO VRB04KT CAVOK 33/20 Q1008
16:00
V
32 °C 10 km+ - 290° 290° 7 kt METAR LFBF 201400Z AUTO 29007KT 220V330 CAVOK 32/20 Q1008
15:30
V
32 °C 10 km+ - Var Var 5 kt METAR LFBF 201330Z AUTO VRB05KT 9999 FEW044 32/20 Q1008
15:00
V
33 °C 10 km+ - Var Var 5 kt METAR LFBF 201300Z AUTO VRB05KT 9999 FEW042 33/21 Q1009
14:30
V
31 °C 10 km+ - Var Var 4 kt METAR LFBF 201230Z AUTO VRB04KT 9999 SCT040 SCT240 31/20 Q1009
14:00
V
31 °C 10 km+ 23,000 ft 330° 330° 4 kt METAR LFBF 201200Z AUTO 33004KT 280V090 9999 SCT039 BKN230 31/21 Q1009
13:30
V
31 °C 10 km+ - Var Var 5 kt METAR LFBF 201130Z AUTO VRB05KT CAVOK 31/20 Q1009
13:00
V
30 °C 10 km+ - 290° 290° 4 kt METAR LFBF 201100Z AUTO 29004KT 190V330 CAVOK 30/20 Q1009
12:30
V
29 °C 10 km+ - 300° 300° 5 kt METAR LFBF 201030Z AUTO 30005KT 250V350 CAVOK 29/20 Q1010
12:00
V
28 °C 10 km+ - 230° 230° 4 kt METAR LFBF 201000Z AUTO 23004KT 190V280 CAVOK 28/20 Q1010
11:30
V
27 °C 10 km+ - 260° 260° 4 kt METAR LFBF 200930Z AUTO 26004KT 190V360 CAVOK 27/20 Q1010
11:00
V
27 °C 10 km+ - 270° 270° 4 kt METAR LFBF 200900Z AUTO 27004KT 210V320 CAVOK 27/20 Q1011
10:30
V
26 °C 10 km+ - 280° 280° 5 kt METAR LFBF 200830Z AUTO 28005KT 240V320 CAVOK 26/19 Q1011
10:00
V
25 °C 10 km+ - 280° 280° 4 kt METAR LFBF 200800Z AUTO 28004KT 260V330 CAVOK 25/19 Q1011
09:30
V
24 °C 10 km+ - 280° 280° 5 kt METAR LFBF 200730Z AUTO 28005KT CAVOK 24/19 Q1011
09:00
V
23 °C 10 km+ - 290° 290° 3 kt METAR LFBF 200700Z AUTO 29003KT 230V320 CAVOK 23/19 Q1012
08:30
V
22 °C 10 km+ - 270° 270° 4 kt METAR LFBF 200630Z AUTO 27004KT 240V330 CAVOK 22/19 Q1012
08:00
V
22 °C 10 km+ - 280° 280° 5 kt METAR LFBF 200600Z AUTO 28005KT 240V320 CAVOK 22/19 Q1012
07:30
V
22 °C 10 km+ - 250° 250° 3 kt METAR LFBF 200530Z AUTO 25003KT 210V290 CAVOK 22/19 Q1012
07:00
V
22 °C 10 km+ - 250° 250° 3 kt METAR LFBF 200500Z AUTO 25003KT 220V280 CAVOK 22/19 Q1012
06:30
V
22 °C 10 km+ - 220° 220° 3 kt METAR LFBF 200430Z AUTO 22003KT 190V250 CAVOK 22/20 Q1012
06:00
V
22 °C 10 km+ - 230° 230° 3 kt METAR LFBF 200400Z AUTO 23003KT 200V260 CAVOK 22/20 Q1013

July 19, 2024

Time Code Weather Temp. Visibility Ceiling Wind METAR/SPECI
21:00
V
30 °C 10 km+ - 010° 010° 5 kt METAR LFBF 191900Z AUTO 01005KT CAVOK 30/20 Q1015
20:30
V
31 °C 10 km+ - 020° 020° 6 kt METAR LFBF 191830Z AUTO 02006KT 350V050 CAVOK 31/20 Q1015
20:00
V
32 °C 10 km+ - 350° 350° 5 kt METAR LFBF 191800Z AUTO 35005KT 330V070 CAVOK 32/19 Q1015
19:30
V
33 °C 10 km+ - 350° 350° 4 kt METAR LFBF 191730Z AUTO 35004KT 300V010 CAVOK 33/18 Q1015
19:00
V
33 °C 10 km+ - 010° 010° 5 kt METAR LFBF 191700Z AUTO 01005KT 290V080 CAVOK 33/19 Q1016
18:30
V
33 °C 10 km+ - 360° 360° 6 kt METAR LFBF 191630Z AUTO 36006KT 330V050 CAVOK 33/20 Q1016
18:00
V
33 °C 10 km+ - 330° 330° 6 kt METAR LFBF 191600Z AUTO 33006KT 300V030 CAVOK 33/19 Q1016
17:30
V
33 °C 10 km+ - 360° 360° 8 kt METAR LFBF 191530Z AUTO 36008KT 330V040 CAVOK 33/20 Q1016
17:00
V
33 °C 10 km+ - 340° 340° 6 kt METAR LFBF 191500Z AUTO 34006KT 270V030 CAVOK 33/20 Q1016
16:30
V
33 °C 10 km+ - 340° 340° 4 kt METAR LFBF 191430Z AUTO 34004KT 270V030 CAVOK 33/18 Q1016
16:00
V
33 °C 10 km+ - 050° 050° 4 kt METAR LFBF 191400Z AUTO 05004KT 340V110 CAVOK 33/18 Q1017
15:30
V
33 °C 10 km+ - 070° 070° 5 kt METAR LFBF 191330Z AUTO 07005KT 360V150 CAVOK 33/17 Q1017
15:00
V
32 °C 10 km+ - 080° 080° 6 kt METAR LFBF 191300Z AUTO 08006KT 010V140 CAVOK 32/18 Q1017
14:30
V
32 °C 10 km+ - 070° 070° 7 kt METAR LFBF 191230Z AUTO 07007KT 020V140 CAVOK 32/17 Q1017
14:00
V
32 °C 10 km+ - 060° 060° 5 kt METAR LFBF 191200Z AUTO 06005KT 350V110 CAVOK 32/18 Q1018
13:30
V
31 °C 10 km+ - 080° 080° 4 kt METAR LFBF 191130Z AUTO 08004KT 360V150 CAVOK 31/18 Q1018
13:00
V
30 °C 10 km+ - Var Var 3 kt METAR LFBF 191100Z AUTO VRB03KT CAVOK 30/18 Q1018
12:30
V
29 °C 10 km+ - Var Var 3 kt METAR LFBF 191030Z AUTO VRB03KT CAVOK 29/18 Q1019
12:00
V
28 °C 10 km+ - Var Var 2 kt METAR LFBF 191000Z AUTO VRB02KT CAVOK 28/19 Q1019
11:30
V
27 °C 10 km+ - 270° 270° 3 kt METAR LFBF 190930Z AUTO 27003KT 170V330 CAVOK 27/19 Q1019
11:00
V
25 °C 10 km+ - 270° 270° 4 kt METAR LFBF 190900Z AUTO 27004KT 190V310 CAVOK 25/19 Q1019
10:30
V
24 °C 10 km+ - 290° 290° 4 kt METAR LFBF 190830Z AUTO 29004KT 210V350 CAVOK 24/19 Q1019
10:00
V
23 °C 10 km+ - 270° 270° 4 kt METAR LFBF 190800Z AUTO 27004KT 240V310 CAVOK 23/19 Q1020
09:30
V
23 °C 10 km+ - 250° 250° 5 kt METAR LFBF 190730Z AUTO 25005KT 210V300 CAVOK 23/19 Q1020
09:00
V
22 °C 10 km+ - 230° 230° 3 kt METAR LFBF 190700Z AUTO 23003KT 180V280 CAVOK 22/19 Q1019
08:30
V
22 °C 10 km+ - 160° 160° 3 kt METAR LFBF 190630Z AUTO 16003KT 110V200 9999 //////CB 22/19 Q1019
08:00
V
21 °C 10 km+ - 270° 270° 6 kt METAR LFBF 190600Z AUTO 27006KT 220V300 9999 //////CB 21/19 Q1020
07:30
V
21 °C 10 km+ - Var Var 3 kt METAR LFBF 190530Z AUTO VRB03KT CAVOK 21/19 Q1019
07:00
V
21 °C 10 km+ - 200° 200° 4 kt METAR LFBF 190500Z AUTO 20004KT 130V270 CAVOK 21/19 Q1019
06:30
V
21 °C 10 km+ - 220° 220° 4 kt METAR LFBF 190430Z AUTO 22004KT 180V250 CAVOK 21/18 Q1019
06:00
V
21 °C 10 km+ - 290° 290° 3 kt METAR LFBF 190400Z AUTO 29003KT 230V320 CAVOK 21/19 Q1019

July 18, 2024

Time Code Weather Temp. Visibility Ceiling Wind METAR/SPECI
21:00
V
32 °C 10 km+ - 130° 130° 5 kt METAR LFBF 181900Z AUTO 13005KT 090V170 CAVOK 32/15 Q1016
20:30
V
33 °C 10 km+ - 140° 140° 4 kt METAR LFBF 181830Z AUTO 14004KT 100V180 CAVOK 33/17 Q1016
20:00
V
34 °C 10 km+ - Var Var 3 kt METAR LFBF 181800Z AUTO VRB03KT CAVOK 34/17 Q1016
19:30
V
35 °C 10 km+ - 140° 140° 4 kt METAR LFBF 181730Z AUTO 14004KT 100V200 CAVOK 35/17 Q1016
19:00
V
35 °C 10 km+ - 150° 150° 6 kt METAR LFBF 181700Z AUTO 15006KT 090V190 CAVOK 35/17 Q1016
18:30
V
36 °C 10 km+ - 130° 130° 5 kt METAR LFBF 181630Z AUTO 13005KT 080V170 CAVOK 36/17 Q1015
18:00
V
36 °C 10 km+ - 080° 080° 5 kt METAR LFBF 181600Z AUTO 08005KT 330V120 CAVOK 36/16 Q1016
17:30
V
36 °C 10 km+ - 100° 100° 5 kt METAR LFBF 181530Z AUTO 10005KT 060V160 CAVOK 36/13 Q1016
17:00
V
36 °C 10 km+ - 100° 100° 6 kt METAR LFBF 181500Z AUTO 10006KT 060V170 CAVOK 36/15 Q1016
16:30
V
35 °C 10 km+ - 100° 100° 7 kt METAR LFBF 181430Z AUTO 10007KT 060V140 CAVOK 35/16 Q1016
16:00
V
35 °C 10 km+ - 080° 080° 8 kt METAR LFBF 181400Z AUTO 08008KT 050V140 CAVOK 35/16 Q1016
15:30
V
35 °C 10 km+ - 090° 090° 8 kt METAR LFBF 181330Z AUTO 09008KT 060V140 CAVOK 35/17 Q1016
15:00
V
35 °C 10 km+ - 100° 100° 8 kt METAR LFBF 181300Z AUTO 10008KT 050V150 CAVOK 35/18 Q1017
14:30
V
34 °C 10 km+ - 090° 090° 9 kt METAR LFBF 181230Z AUTO 09009KT 050V110 CAVOK 34/18 Q1017
14:00
V
33 °C 10 km+ - 120° 120° 8 kt METAR LFBF 181200Z AUTO 12008KT 060V180 CAVOK 33/18 Q1017
13:30
V
33 °C 10 km+ - 130° 130° 8 kt METAR LFBF 181130Z AUTO 13008KT 080V170 CAVOK 33/17 Q1017
13:00
V
32 °C 10 km+ - 110° 110° 7 kt METAR LFBF 181100Z AUTO 11007KT 060V170 CAVOK 32/17 Q1017
12:30
V
30 °C 10 km+ - 110° 110° 9 kt METAR LFBF 181030Z AUTO 11009KT 080V140 CAVOK 30/17 Q1018
12:00
V
30 °C 10 km+ - 120° 120° 7 kt METAR LFBF 181000Z AUTO 12007KT 070V180 CAVOK 30/17 Q1018
11:30
V
30 °C 10 km+ - 120° 120° 7 kt METAR LFBF 180930Z AUTO 12007KT 080V170 CAVOK 30/17 Q1018
11:00
V
28 °C 10 km+ - 130° 130° 8 kt METAR LFBF 180900Z AUTO 13008KT 090V170 CAVOK 28/16 Q1018
10:30
V
28 °C 10 km+ - 120° 120° 7 kt METAR LFBF 180830Z AUTO 12007KT 080V170 CAVOK 28/16 Q1018
10:00
V
26 °C 10 km+ - 130° 130° 5 kt METAR LFBF 180800Z AUTO 13005KT 100V180 CAVOK 26/16 Q1018
09:30
V
25 °C 10 km+ - Var Var 1 kt METAR LFBF 180730Z AUTO VRB01KT CAVOK 25/16 Q1018
09:00
V
23 °C 10 km+ - 360° 360° 0 kt METAR LFBF 180700Z AUTO 00000KT CAVOK 23/17 Q1018
08:30
V
21 °C 10 km+ - 360° 360° 0 kt METAR LFBF 180630Z AUTO 00000KT CAVOK 21/16 Q1018
08:00
V
19 °C 10 km+ - Var Var 1 kt METAR LFBF 180600Z AUTO VRB01KT CAVOK 19/16 Q1018
Report a change